LYNI/INI METAR and TAF weather

Enter ICAO airport designator
Station Type Date Time Source
LYNI METAR 2021/09/24 03:30 UTC NOAA

LYNI 240330Z 11002KT CAVOK 05/03 Q1020 NOSIG


Station Type Date Time Source
LYNI Decoded METAR 2021/09/24 03:30 UTC NOAA

Nis, Serbia and Montenegro (LYNI) 43-20N 021-54E 202M
Sep 23, 2021 - 11:30 PM EDT / 2021.09.24 0330 UTC
Wind: from the ESE (110 degrees) at 2 MPH (2 KT):0
Visibility: greater than 7 mile(s):0
Temperature: 41 F (5 C)
Dew Point: 37 F (3 C)
Relative Humidity: 86%
Pressure (altimeter): 30.12 in. Hg (1020 hPa)
ob: LYNI 240330Z 11002KT CAVOK 05/03 Q1020 NOSIG
cycle: 3

Station Type Date Time Source
LYNI TAF 2021/09/23 18:25 UTC NOAA

TAF LYNI 231700Z 2318/2418 18004KT CAVOK TX24/2413Z TN04/2404Z
TEMPO 2412/2416 30011KT

Example: see airport list